Maersk Bulan — 9V7693 — position and weather

sailwx.info

Track history (hours):
 
Tides and Currents Weather Stations Pressure Air Temp Water Temp Dewpoint Dewpoint Depression Visibility Wind Speed Wind Dir Waves Ship Positions

Maersk Bulan

Last reported at 2018-Apr-09 05:46 UTC. Time now 2018-Apr-19 21:23 UTC.
Position N 40°43' E 029°28'.
Warning: this ship's position is 10 days out of date.

Length 223 m; draft 6.2 m.

Type: Ship (hazmat cat A). MMSI: 563455000.

Date/timePositionNaut miles runAvg speedWind from/ knotsBaromVisibWave heightAir tempDewpointWater temp
2018-Apr-09 05:46N 40°43' E 029°28'3 6.9
2018-Apr-09 05:22N 40°43' E 029°24'3 8.1
2018-Apr-09 05:00N 40°43' E 029°21'4 7.3
2018-Apr-09 04:30N 40°43' E 029°16'3 5.3
2018-Apr-09 04:00N 40°43' E 029°12'0 0.1
2018-Apr-09 03:30N 40°43' E 029°12'0 0.1
2018-Apr-09 03:00N 40°43' E 029°12'0 0.2
2018-Apr-09 02:30N 40°43' E 029°12'0 0.2
2018-Apr-09 02:00N 40°43' E 029°12'0 0.1
2018-Apr-09 01:29N 40°43' E 029°12'0 0.2
2018-Apr-09 00:59N 40°43' E 029°12'0 0.3
2018-Apr-09 00:29N 40°43' E 029°12'0 0.3
2018-Apr-09 00:00N 40°43' E 029°12'0 0.3
2018-Apr-08 23:15N 40°43' E 029°13'0 0.3
2018-Apr-08 23:00N 40°43' E 029°13'0 0.3
2018-Apr-08 22:31N 40°43' E 029°13'1 2.1
2018-Apr-08 22:01N 40°44' E 029°11'611.5
2018-Apr-08 21:30N 40°44' E 029°04'611.1
2018-Apr-08 21:00N 40°44' E 028°56'610.5
2018-Apr-08 20:28N 40°46' E 028°49'12 0.4
2018-Apr-07 13:17N 40°57' E 028°55'2 1.9
2018-Apr-07 12:02N 40°58' E 028°58'0 6.3
2018-Apr-07 12:00N 40°58' E 028°58'12810.6
2018-Apr-06 23:54N 42°11' E 031°20'820.1
2018-Apr-06 23:30N 42°15' E 031°29'1020.1
2018-Apr-06 23:00N 42°19' E 031°41'1020.3
2018-Apr-06 22:30N 42°23' E 031°54'1020.3
2018-Apr-06 22:00N 42°27' E 032°06'1620.3
2018-Apr-06 21:14N 42°34' E 032°26'520.3
2018-Apr-06 21:00N 42°36' E 032°31'1020.3
2018-Apr-06 20:30N 42°41' E 032°43'1019.9
2018-Apr-06 20:00N 42°46' E 032°55'1019.9
2018-Apr-06 19:30N 42°50' E 033°08'1019.6
2018-Apr-06 18:59N 42°55' E 033°20'1219.7
2018-Apr-06 18:23N 43°00' E 033°34'1819.6
2018-Apr-06 17:29N 43°08' E 033°56'920.0
2018-Apr-06 17:00N 43°13' E 034°07'1020.3
2018-Apr-06 16:30N 43°17' E 034°20'12120.5
2018-Apr-06 10:35N 44°12' E 036°50'220.1
2018-Apr-06 10:30N 44°12' E 036°52'1020.3
2018-Apr-06 10:00N 44°17' E 037°05'1020.3
2018-Apr-06 09:30N 44°22' E 037°17'1020.2
2018-Apr-06 09:00N 44°26' E 037°30'1020.0
2018-Apr-06 08:30N 44°32' E 037°42'917.8
2018-Apr-06 08:00N 44°38' E 037°50'5 7.2
2018-Apr-06 07:20N 44°43' E 037°49'0 0.7
2018-Apr-06 07:01N 44°43' E 037°49'0 0.0
2018-Apr-06 06:29N 44°43' E 037°49'0 0.0
2018-Apr-06 05:59N 44°43' E 037°49'0 0.0
2018-Apr-06 05:29N 44°43' E 037°49'0 0.0
2018-Apr-06 04:59N 44°43' E 037°49'0 0.0
2018-Apr-06 04:29N 44°43' E 037°49'0 0.0
2018-Apr-06 03:59N 44°43' E 037°49'0 0.0
2018-Apr-06 03:29N 44°43' E 037°49'0 0.0
2018-Apr-06 02:59N 44°43' E 037°49'0 0.0
2018-Apr-06 02:29N 44°43' E 037°49'0 0.0
2018-Apr-06 01:59N 44°43' E 037°49'0 0.0
2018-Apr-06 01:29N 44°43' E 037°49'0 0.0
2018-Apr-06 00:59N 44°43' E 037°49'0 0.0
2018-Apr-06 00:29N 44°43' E 037°49'0 0.0
2018-Apr-05 23:59N 44°43' E 037°49'0 0.0
2018-Apr-05 23:29N 44°43' E 037°49'0 0.0
2018-Apr-05 22:59N 44°43' E 037°49'0 0.0
2018-Apr-05 22:29N 44°43' E 037°49'0 0.0
2018-Apr-05 21:59N 44°43' E 037°49'0 0.0
2018-Apr-05 21:29N 44°43' E 037°49'0 0.0
2018-Apr-05 20:59N 44°43' E 037°49'0 0.0
2018-Apr-05 20:29N 44°43' E 037°49'0 0.0
2018-Apr-05 19:59N 44°43' E 037°49'0 0.0
2018-Apr-05 19:29N 44°43' E 037°49'0 0.0
2018-Apr-05 18:59N 44°43' E 037°49'0 0.0
2018-Apr-05 18:29N 44°43' E 037°49'0 0.0
2018-Apr-05 17:59N 44°43' E 037°49'0 0.0
2018-Apr-05 17:29N 44°43' E 037°49'0 0.0
2018-Apr-05 16:59N 44°43' E 037°49'0 0.0
2018-Apr-05 16:29N 44°43' E 037°49'0 0.0
2018-Apr-05 15:59N 44°43' E 037°49'0 0.0
2018-Apr-05 15:29N 44°43' E 037°49'0 0.0
2018-Apr-05 14:59N 44°43' E 037°49'0 0.0
2018-Apr-05 14:29N 44°43' E 037°49'0 0.0
2018-Apr-05 13:59N 44°43' E 037°49'0 0.0
2018-Apr-05 13:29N 44°43' E 037°49'0 0.0
2018-Apr-05 12:59N 44°43' E 037°49'0 0.0
2018-Apr-05 12:29N 44°43' E 037°49'0 0.0
2018-Apr-05 11:59N 44°43' E 037°49'0 0.0
2018-Apr-05 11:29N 44°43' E 037°49'0 0.0
2018-Apr-05 10:59N 44°43' E 037°49'0 0.0
2018-Apr-05 10:29N 44°43' E 037°49'0 0.0
2018-Apr-05 09:59N 44°43' E 037°49'0 0.0
2018-Apr-05 09:29N 44°43' E 037°49'0 0.0
2018-Apr-05 08:59N 44°43' E 037°49'0 0.0
2018-Apr-05 08:29N 44°43' E 037°49'0 0.0
2018-Apr-05 07:59N 44°43' E 037°49'0 0.0
2018-Apr-05 07:29N 44°43' E 037°49'0 0.0
2018-Apr-05 06:59N 44°43' E 037°49'0 0.0
2018-Apr-05 06:29N 44°43' E 037°49'0 0.0
2018-Apr-05 05:59N 44°43' E 037°49'0 0.0
2018-Apr-05 05:29N 44°43' E 037°49'0 0.0
2018-Apr-05 04:59N 44°43' E 037°49'0 0.0
2018-Apr-05 04:29N 44°43' E 037°49'0 0.0
2018-Apr-05 03:59N 44°43' E 037°49'0 0.0
2018-Apr-05 03:23N 44°43' E 037°49'0 0.0
2018-Apr-05 02:59N 44°43' E 037°49'0 0.0
2018-Apr-05 02:26N 44°43' E 037°49'0 0.0
2018-Apr-05 01:56N 44°43' E 037°49'0 0.0
2018-Apr-05 01:29N 44°43' E 037°49'0 0.0
2018-Apr-05 00:59N 44°43' E 037°49'0 0.0
2018-Apr-05 00:29N 44°43' E 037°49'0 0.0
2018-Apr-04 23:59N 44°43' E 037°49'0 0.0
2018-Apr-04 23:29N 44°43' E 037°49'0 0.0
2018-Apr-04 22:59N 44°43' E 037°49'0 0.0
2018-Apr-04 22:29N 44°43' E 037°49'0 0.0
2018-Apr-04 21:59N 44°43' E 037°49'0 0.0
2018-Apr-04 21:29N 44°43' E 037°49'0 0.0
2018-Apr-04 20:59N 44°43' E 037°49'0 0.0
2018-Apr-04 20:29N 44°43' E 037°49'0 0.0
2018-Apr-04 19:59N 44°43' E 037°49'0 0.0
2018-Apr-04 19:29N 44°43' E 037°49'0 0.0
2018-Apr-04 18:59N 44°43' E 037°49'0 0.1
2018-Apr-04 18:30N 44°43' E 037°49'1 1.5
2018-Apr-04 18:00N 44°43' E 037°48'3 5.1
2018-Apr-04 17:30N 44°41' E 037°50'3 6.8
2018-Apr-04 17:00N 44°38' E 037°52'1 1.3
2018-Apr-04 16:30N 44°37' E 037°52'0 0.5
2018-Apr-04 16:00N 44°37' E 037°52'1 1.6
2018-Apr-04 15:30N 44°36' E 037°51'811.4
2018-Apr-04 14:46N 44°28' E 037°47'414.0
2018-Apr-04 14:31N 44°25' E 037°44'1 1.7
2018-Apr-04 13:43N 44°24' E 037°43'0 0.5
2018-Apr-04 13:30N 44°24' E 037°43'0 0.4
2018-Apr-04 13:00N 44°25' E 037°43'0 1.0
2018-Apr-04 12:30N 44°25' E 037°42'4 7.3
2018-Apr-04 12:01N 44°24' E 037°37'510.8
2018-Apr-04 11:30N 44°22' E 037°30'610.9
2018-Apr-04 10:57N 44°19' E 037°22'510.8
2018-Apr-04 10:28N 44°17' E 037°16'29313.9
2018-Apr-03 13:19N 46°15' E 030°54'619.3
2018-Apr-03 12:59N 46°22' E 030°55'918.4
2018-Apr-03 12:30N 46°31' E 030°55'5 9.4
2018-Apr-03 12:00N 46°34' E 031°00'2 0.1
2018-Apr-02 07:29N 46°36' E 031°01'4 7.6
2018-Apr-02 06:55N 46°32' E 030°57'2 5.5
2018-Apr-02 06:30N 46°30' E 030°58'0 0.8
2018-Apr-02 06:00N 46°30' E 030°58'0 0.1
2018-Apr-02 05:18N 46°30' E 030°58'0 0.2
2018-Apr-02 04:48N 46°30' E 030°58'0 0.1
2018-Apr-02 04:24N 46°30' E 030°58'0 0.0
2018-Apr-02 02:48N 46°30' E 030°58'0 0.0
2018-Apr-02 02:12N 46°30' E 030°58'0 0.0
2018-Apr-02 01:18N 46°30' E 030°58'0 0.0
2018-Apr-01 17:51N 46°30' E 030°58'0 0.5
2018-Apr-01 17:23N 46°30' E 030°58'2 4.9
2018-Apr-01 17:00N 46°28' E 030°57'713.0
2018-Apr-01 16:30N 46°21' E 030°57'  
Track history (hours):
 
Tides and Currents Weather Stations Pressure Air Temp Water Temp Dewpoint Dewpoint Depression Visibility Wind Speed Wind Dir Waves Ship Positions

Maersk Bulan

Last reported at 2018-Apr-09 05:46 UTC. Time now 2018-Apr-19 21:23 UTC.
Position N 40°43' E 029°28'.
Warning: this ship's position is 10 days out of date.

Length 223 m; draft 6.2 m.

Type: Ship (hazmat cat A). MMSI: 563455000.

Date/timePositionNaut miles runAvg speedWind from/ knotsBaromVisibWave heightAir tempDewpointWater temp
2018-Apr-09 05:46N 40°43' E 029°28'3 6.9
2018-Apr-09 05:22N 40°43' E 029°24'3 8.1
2018-Apr-09 05:00N 40°43' E 029°21'4 7.3
2018-Apr-09 04:30N 40°43' E 029°16'3 5.3
2018-Apr-09 04:00N 40°43' E 029°12'0 0.1
2018-Apr-09 03:30N 40°43' E 029°12'0 0.1
2018-Apr-09 03:00N 40°43' E 029°12'0 0.2
2018-Apr-09 02:30N 40°43' E 029°12'0 0.2
2018-Apr-09 02:00N 40°43' E 029°12'0 0.1
2018-Apr-09 01:29N 40°43' E 029°12'0 0.2
2018-Apr-09 00:59N 40°43' E 029°12'0 0.3
2018-Apr-09 00:29N 40°43' E 029°12'0 0.3
2018-Apr-09 00:00N 40°43' E 029°12'0 0.3
2018-Apr-08 23:15N 40°43' E 029°13'0 0.3
2018-Apr-08 23:00N 40°43' E 029°13'0 0.3
2018-Apr-08 22:31N 40°43' E 029°13'1 2.1
2018-Apr-08 22:01N 40°44' E 029°11'611.5
2018-Apr-08 21:30N 40°44' E 029°04'611.1
2018-Apr-08 21:00N 40°44' E 028°56'610.5
2018-Apr-08 20:28N 40°46' E 028°49'12 0.4
2018-Apr-07 13:17N 40°57' E 028°55'2 1.9
2018-Apr-07 12:02N 40°58' E 028°58'0 6.3
2018-Apr-07 12:00N 40°58' E 028°58'12810.6
2018-Apr-06 23:54N 42°11' E 031°20'820.1
2018-Apr-06 23:30N 42°15' E 031°29'1020.1
2018-Apr-06 23:00N 42°19' E 031°41'1020.3
2018-Apr-06 22:30N 42°23' E 031°54'1020.3
2018-Apr-06 22:00N 42°27' E 032°06'1620.3
2018-Apr-06 21:14N 42°34' E 032°26'520.3
2018-Apr-06 21:00N 42°36' E 032°31'1020.3
2018-Apr-06 20:30N 42°41' E 032°43'1019.9
2018-Apr-06 20:00N 42°46' E 032°55'1019.9
2018-Apr-06 19:30N 42°50' E 033°08'1019.6
2018-Apr-06 18:59N 42°55' E 033°20'1219.7
2018-Apr-06 18:23N 43°00' E 033°34'1819.6
2018-Apr-06 17:29N 43°08' E 033°56'920.0
2018-Apr-06 17:00N 43°13' E 034°07'1020.3
2018-Apr-06 16:30N 43°17' E 034°20'12120.5
2018-Apr-06 10:35N 44°12' E 036°50'220.1
2018-Apr-06 10:30N 44°12' E 036°52'1020.3
2018-Apr-06 10:00N 44°17' E 037°05'1020.3
2018-Apr-06 09:30N 44°22' E 037°17'1020.2
2018-Apr-06 09:00N 44°26' E 037°30'1020.0
2018-Apr-06 08:30N 44°32' E 037°42'917.8
2018-Apr-06 08:00N 44°38' E 037°50'5 7.2
2018-Apr-06 07:20N 44°43' E 037°49'0 0.7
2018-Apr-06 07:01N 44°43' E 037°49'0 0.0
2018-Apr-06 06:29N 44°43' E 037°49'0 0.0
2018-Apr-06 05:59N 44°43' E 037°49'0 0.0
2018-Apr-06 05:29N 44°43' E 037°49'0 0.0
2018-Apr-06 04:59N 44°43' E 037°49'0 0.0
2018-Apr-06 04:29N 44°43' E 037°49'0 0.0
2018-Apr-06 03:59N 44°43' E 037°49'0 0.0
2018-Apr-06 03:29N 44°43' E 037°49'0 0.0
2018-Apr-06 02:59N 44°43' E 037°49'0 0.0
2018-Apr-06 02:29N 44°43' E 037°49'0 0.0
2018-Apr-06 01:59N 44°43' E 037°49'0 0.0
2018-Apr-06 01:29N 44°43' E 037°49'0 0.0
2018-Apr-06 00:59N 44°43' E 037°49'0 0.0
2018-Apr-06 00:29N 44°43' E 037°49'0 0.0
2018-Apr-05 23:59N 44°43' E 037°49'0 0.0
2018-Apr-05 23:29N 44°43' E 037°49'0 0.0
2018-Apr-05 22:59N 44°43' E 037°49'0 0.0
2018-Apr-05 22:29N 44°43' E 037°49'0 0.0
2018-Apr-05 21:59N 44°43' E 037°49'0 0.0
2018-Apr-05 21:29N 44°43' E 037°49'0 0.0
2018-Apr-05 20:59N 44°43' E 037°49'0 0.0
2018-Apr-05 20:29N 44°43' E 037°49'0 0.0
2018-Apr-05 19:59N 44°43' E 037°49'0 0.0
2018-Apr-05 19:29N 44°43' E 037°49'0 0.0
2018-Apr-05 18:59N 44°43' E 037°49'0 0.0
2018-Apr-05 18:29N 44°43' E 037°49'0 0.0
2018-Apr-05 17:59N 44°43' E 037°49'0 0.0
2018-Apr-05 17:29N 44°43' E 037°49'0 0.0
2018-Apr-05 16:59N 44°43' E 037°49'0 0.0
2018-Apr-05 16:29N 44°43' E 037°49'0 0.0
2018-Apr-05 15:59N 44°43' E 037°49'0 0.0
2018-Apr-05 15:29N 44°43' E 037°49'0 0.0
2018-Apr-05 14:59N 44°43' E 037°49'0 0.0
2018-Apr-05 14:29N 44°43' E 037°49'0 0.0
2018-Apr-05 13:59N 44°43' E 037°49'0 0.0
2018-Apr-05 13:29N 44°43' E 037°49'0 0.0
2018-Apr-05 12:59N 44°43' E 037°49'0 0.0
2018-Apr-05 12:29N 44°43' E 037°49'0 0.0
2018-Apr-05 11:59N 44°43' E 037°49'0 0.0
2018-Apr-05 11:29N 44°43' E 037°49'0 0.0
2018-Apr-05 10:59N 44°43' E 037°49'0 0.0
2018-Apr-05 10:29N 44°43' E 037°49'0 0.0
2018-Apr-05 09:59N 44°43' E 037°49'0 0.0
2018-Apr-05 09:29N 44°43' E 037°49'0 0.0
2018-Apr-05 08:59N 44°43' E 037°49'0 0.0
2018-Apr-05 08:29N 44°43' E 037°49'0 0.0
2018-Apr-05 07:59N 44°43' E 037°49'0 0.0
2018-Apr-05 07:29N 44°43' E 037°49'0 0.0
2018-Apr-05 06:59N 44°43' E 037°49'0 0.0
2018-Apr-05 06:29N 44°43' E 037°49'0 0.0
2018-Apr-05 05:59N 44°43' E 037°49'0 0.0
2018-Apr-05 05:29N 44°43' E 037°49'0 0.0
2018-Apr-05 04:59N 44°43' E 037°49'0 0.0
2018-Apr-05 04:29N 44°43' E 037°49'0 0.0
2018-Apr-05 03:59N 44°43' E 037°49'0 0.0
2018-Apr-05 03:23N 44°43' E 037°49'0 0.0
2018-Apr-05 02:59N 44°43' E 037°49'0 0.0
2018-Apr-05 02:26N 44°43' E 037°49'0 0.0
2018-Apr-05 01:56N 44°43' E 037°49'0 0.0
2018-Apr-05 01:29N 44°43' E 037°49'0 0.0
2018-Apr-05 00:59N 44°43' E 037°49'0 0.0
2018-Apr-05 00:29N 44°43' E 037°49'0 0.0
2018-Apr-04 23:59N 44°43' E 037°49'0 0.0
2018-Apr-04 23:29N 44°43' E 037°49'0 0.0
2018-Apr-04 22:59N 44°43' E 037°49'0 0.0
2018-Apr-04 22:29N 44°43' E 037°49'0 0.0
2018-Apr-04 21:59N 44°43' E 037°49'0 0.0
2018-Apr-04 21:29N 44°43' E 037°49'0 0.0
2018-Apr-04 20:59N 44°43' E 037°49'0 0.0
2018-Apr-04 20:29N 44°43' E 037°49'0 0.0
2018-Apr-04 19:59N 44°43' E 037°49'0 0.0
2018-Apr-04 19:29N 44°43' E 037°49'0 0.0
2018-Apr-04 18:59N 44°43' E 037°49'0 0.1
2018-Apr-04 18:30N 44°43' E 037°49'1 1.5
2018-Apr-04 18:00N 44°43' E 037°48'3 5.1
2018-Apr-04 17:30N 44°41' E 037°50'3 6.8
2018-Apr-04 17:00N 44°38' E 037°52'1 1.3
2018-Apr-04 16:30N 44°37' E 037°52'0 0.5
2018-Apr-04 16:00N 44°37' E 037°52'1 1.6
2018-Apr-04 15:30N 44°36' E 037°51'811.4
2018-Apr-04 14:46N 44°28' E 037°47'414.0
2018-Apr-04 14:31N 44°25' E 037°44'1 1.7
2018-Apr-04 13:43N 44°24' E 037°43'0 0.5
2018-Apr-04 13:30N 44°24' E 037°43'0 0.4
2018-Apr-04 13:00N 44°25' E 037°43'0 1.0
2018-Apr-04 12:30N 44°25' E 037°42'4 7.3
2018-Apr-04 12:01N 44°24' E 037°37'510.8
2018-Apr-04 11:30N 44°22' E 037°30'610.9
2018-Apr-04 10:57N 44°19' E 037°22'510.8
2018-Apr-04 10:28N 44°17' E 037°16'29313.9
2018-Apr-03 13:19N 46°15' E 030°54'619.3
2018-Apr-03 12:59N 46°22' E 030°55'918.4
2018-Apr-03 12:30N 46°31' E 030°55'5 9.4
2018-Apr-03 12:00N 46°34' E 031°00'2 0.1
2018-Apr-02 07:29N 46°36' E 031°01'4 7.6
2018-Apr-02 06:55N 46°32' E 030°57'2 5.5
2018-Apr-02 06:30N 46°30' E 030°58'0 0.8
2018-Apr-02 06:00N 46°30' E 030°58'0 0.1
2018-Apr-02 05:18N 46°30' E 030°58'0 0.2
2018-Apr-02 04:48N 46°30' E 030°58'0 0.1
2018-Apr-02 04:24N 46°30' E 030°58'0 0.0
2018-Apr-02 02:48N 46°30' E 030°58'0 0.0
2018-Apr-02 02:12N 46°30' E 030°58'0 0.0
2018-Apr-02 01:18N 46°30' E 030°58'0 0.0
2018-Apr-01 17:51N 46°30' E 030°58'0 0.5
2018-Apr-01 17:23N 46°30' E 030°58'2 4.9
2018-Apr-01 17:00N 46°28' E 030°57'713.0
2018-Apr-01 16:30N 46°21' E 030°57'  

Dump ship's entire track history